DEANS EDLW-EDLW

Flight info

Callsign DEANS
Flight time 0h 6m
Altitude
Route VFR
Aircraft C172

Departure

Time 2026-04-28 17:37
Airport Dortmund Airport (EDLW)

Arrival

Time 2026-04-28 17:43
Airport Dortmund Airport (EDLW)
Time Latitude Longitude Altitude Speed Heading
2026-04-28 17:31 51.51155 7.60312 462 ft 0 kts 195°
2026-04-28 17:32 51.51148 7.60299 462 ft 7 kts 252°
2026-04-28 17:32 51.51180 7.60148 452 ft 19 kts 351°
2026-04-28 17:33 51.51245 7.60306 440 ft 19 kts 63°
2026-04-28 17:33 51.51316 7.60500 441 ft 21 kts 59°
2026-04-28 17:33 51.51388 7.60708 438 ft 22 kts 60°
2026-04-28 17:33 51.51441 7.60859 426 ft 24 kts 62°
2026-04-28 17:34 51.51543 7.61059 429 ft 15 kts 346°
2026-04-28 17:34 51.51566 7.60945 421 ft 13 kts 253°
2026-04-28 17:34 51.51539 7.60784 417 ft 17 kts 253°
2026-04-28 17:34 51.51526 7.60677 417 ft 0 kts 274°
2026-04-28 17:35 51.51545 7.60635 420 ft 9 kts 317°
2026-04-28 17:35 51.51613 7.60626 420 ft 14 kts 36°
2026-04-28 17:35 51.51698 7.60840 421 ft 41 kts 63°
2026-04-28 17:36 51.51899 7.61411 422 ft 74 kts 61°
2026-04-28 17:36 51.52205 7.62178 525 ft 82 kts 57°
2026-04-28 17:36 51.52567 7.62894 685 ft 84 kts 43°
2026-04-28 17:36 51.53045 7.63323 905 ft 75 kts 11°
2026-04-28 17:37 51.53536 7.63179 1050 ft 76 kts 322°
2026-04-28 17:37 51.53800 7.62455 1155 ft 81 kts 264°
2026-04-28 17:37 51.53541 7.61512 1149 ft 97 kts 243°
2026-04-28 17:37 51.53193 7.60610 1302 ft 95 kts 235°
2026-04-28 17:38 51.52774 7.59817 1435 ft 94 kts 228°
2026-04-28 17:38 51.52373 7.58895 1436 ft 101 kts 231°
2026-04-28 17:38 51.51721 7.58501 1338 ft 119 kts 158°
2026-04-28 17:38 51.51085 7.59281 1197 ft 105 kts 77°
2026-04-28 17:39 51.51546 7.60395 549 ft 124 kts 63°
2026-04-28 17:39 51.51929 7.61507 418 ft 102 kts 61°
2026-04-28 17:39 51.52524 7.63374 712 ft 96 kts 91°
2026-04-28 17:40 51.52456 7.64407 921 ft 94 kts 115°
2026-04-28 17:40 51.51989 7.65080 1147 ft 92 kts 152°
2026-04-28 17:40 51.51376 7.65315 1334 ft 93 kts 179°
2026-04-28 17:40 51.50791 7.65000 1418 ft 103 kts 231°
2026-04-28 17:41 51.50462 7.63994 1624 ft 96 kts 243°
2026-04-28 17:41 51.50182 7.62978 1572 ft 115 kts 245°
2026-04-28 17:41 51.49936 7.61760 1631 ft 116 kts 250°
2026-04-28 17:41 51.49767 7.60453 1593 ft 124 kts 262°
2026-04-28 17:42 51.49802 7.59056 1391 ft 131 kts 303°
2026-04-28 17:42 51.50276 7.58647 1302 ft 108 kts
2026-04-28 17:42 51.51101 7.59388 681 ft 99 kts 44°
2026-04-28 17:42 51.51479 7.60221 435 ft 82 kts 59°
2026-04-28 17:43 51.51672 7.60774 422 ft 51 kts 61°
2026-04-28 17:43 51.51885 7.61367 416 ft 66 kts 64°
2026-04-28 17:43 51.52105 7.61959 412 ft 45 kts 66°
2026-04-28 17:43 51.52196 7.62286 408 ft 13 kts 101°
2026-04-28 17:44 51.52112 7.62381 407 ft 18 kts 149°
2026-04-28 17:44 51.52006 7.62255 409 ft 28 kts 239°
2026-04-28 17:44 51.51873 7.61882 414 ft 51 kts 240°
2026-04-28 17:44 51.51687 7.61353 418 ft 50 kts 241°
2026-04-28 17:45 51.51564 7.61053 427 ft 11 kts 183°
2026-04-28 17:45 51.51459 7.60912 428 ft 39 kts 241°
2026-04-28 17:45 51.51285 7.60415 439 ft 48 kts 239°
2026-04-28 17:45 51.51170 7.60169 454 ft 14 kts 147°
2026-04-28 17:46 51.51162 7.60308 460 ft 0 kts 132°